Time;durP1;ratioP1;P1;durP2;ratioP2;P2;SDS_P1;SDS_P2;PMS_P1;PMS_P2;Temp;Humidity;BMP_temperature;BMP_pressure;BME280_temperature;BME280_humidity;BME280_pressure;Samples;Min_cycle;Max_cycle;Signal;HPM_P1;HPM_P2
2023/10/15 00:00:27;;;;;;;7.70;2.65;;;7.90;99.90;;;;;;6253696;23;20183;-78
2023/10/15 00:02:55;;;;;;;0.50;0.50;;;7.80;99.90;;;;;;6260403;23;20184;-78
2023/10/15 00:05:27;;;;;;;1.25;1.25;;;7.90;99.90;;;;;;6253889;23;20191;-79
2023/10/15 00:07:57;;;;;;;0.50;0.50;;;8.00;99.90;;;;;;6250613;23;20210;-79
2023/10/15 00:10:26;;;;;;;0.77;0.77;;;8.10;99.90;;;;;;6251200;23;20175;-78
2023/10/15 00:12:56;;;;;;;0.50;0.50;;;8.30;99.90;;;;;;6250130;23;20179;-78
2023/10/15 00:15:25;;;;;;;2.30;1.55;;;8.40;99.90;;;;;;6223388;23;20200;-76
2023/10/15 00:17:54;;;;;;;1.75;1.17;;;8.40;99.90;;;;;;6250565;23;20184;-77
2023/10/15 00:20:27;;;;;;;1.17;1.17;;;8.50;99.90;;;;;;6250166;23;20218;-76
2023/10/15 00:22:54;;;;;;;0.95;0.85;;;8.60;99.90;;;;;;6249317;23;20198;-78
2023/10/15 00:25:21;;;;;;;1.95;1.85;;;8.70;99.90;;;;;;6249890;23;20210;-77
2023/10/15 00:27:54;;;;;;;2.13;1.67;;;8.60;99.90;;;;;;6249736;23;20428;-77
2023/10/15 00:30:31;;;;;;;0.82;0.82;;;8.70;99.90;;;;;;6250106;23;20168;-80
2023/10/15 00:33:06;;;;;;;0.57;0.57;;;8.70;99.90;;;;;;6249880;23;20174;-76
2023/10/15 00:35:34;;;;;;;0.60;0.60;;;8.70;99.90;;;;;;6251104;23;20226;-78
2023/10/15 00:38:11;;;;;;;0.50;0.50;;;8.60;99.90;;;;;;6252791;23;20427;-77
2023/10/15 00:40:38;;;;;;;1.05;1.05;;;8.70;99.90;;;;;;6254384;23;20647;-77
2023/10/15 00:43:10;;;;;;;0.50;0.50;;;8.70;99.90;;;;;;6251038;23;20180;-79
2023/10/15 00:45:43;;;;;;;0.80;0.80;;;8.70;99.90;;;;;;6224816;23;20228;-80
2023/10/15 00:48:24;;;;;;;1.33;1.23;;;8.70;99.90;;;;;;6253422;23;20159;-79
2023/10/15 00:50:53;;;;;;;0.75;0.75;;;8.80;99.90;;;;;;6254725;23;20531;-80
2023/10/15 00:53:24;;;;;;;0.50;0.50;;;8.80;99.90;;;;;;6243513;23;20191;-80
2023/10/15 00:56:02;;;;;;;0.63;0.63;;;8.90;99.90;;;;;;6272382;23;20176;-79
2023/10/15 00:58:33;;;;;;;0.55;0.55;;;8.80;99.90;;;;;;6271927;22;20155;-80
2023/10/15 01:01:19;;;;;;;0.70;0.70;;;8.90;99.90;;;;;;6258309;23;20384;-78
2023/10/15 01:03:54;;;;;;;0.93;0.93;;;8.80;99.90;;;;;;6254803;23;20182;-80
2023/10/15 01:08:58;;;;;;;1.35;1.25;;;8.70;99.90;;;;;;6253706;23;20167;-80
2023/10/15 01:11:28;;;;;;;1.02;1.02;;;8.60;99.90;;;;;;6224199;23;20191;-79
2023/10/15 01:13:57;;;;;;;0.60;0.60;;;8.50;99.90;;;;;;6250671;23;20198;-78
2023/10/15 01:16:27;;;;;;;4.25;1.90;;;8.30;99.90;;;;;;6250204;23;20214;-76
2023/10/15 01:19:14;;;;;;;0.50;0.50;;;8.30;99.90;;;;;;6249806;23;20176;-76
2023/10/15 01:21:48;;;;;;;0.50;0.50;;;8.30;99.90;;;;;;6250214;23;20167;-77
2023/10/15 01:24:18;;;;;;;1.50;1.40;;;8.20;99.90;;;;;;6223255;23;20226;-77
2023/10/15 01:26:59;;;;;;;0.63;0.63;;;8.30;99.90;;;;;;6249751;23;20222;-76
2023/10/15 01:29:27;;;;;;;0.50;0.50;;;8.30;99.90;;;;;;6223137;23;20168;-81
2023/10/15 01:31:58;;;;;;;0.50;0.50;;;8.30;99.90;;;;;;6249487;23;20236;-78
2023/10/15 01:34:26;;;;;;;0.60;0.60;;;8.20;99.90;;;;;;6249214;23;20195;-79
2023/10/15 01:36:56;;;;;;;0.50;0.50;;;8.30;99.90;;;;;;6250855;23;20195;-78
2023/10/15 01:39:45;;;;;;;0.50;0.50;;;8.40;99.90;;;;;;6225391;23;20168;-79
2023/10/15 01:42:31;;;;;;;0.50;0.50;;;8.40;99.90;;;;;;6248638;23;20250;-79
2023/10/15 01:45:13;;;;;;;0.50;0.50;;;8.30;99.90;;;;;;6249265;23;20553;-78
2023/10/15 01:50:24;;;;;;;0.50;0.50;;;8.40;99.90;;;;;;6249153;23;20258;-80
2023/10/15 01:53:04;;;;;;;0.50;0.50;;;8.30;99.90;;;;;;6252201;23;20167;-79
2023/10/15 01:55:35;;;;;;;0.50;0.50;;;8.20;99.90;;;;;;6252966;23;20302;-78
2023/10/15 01:58:05;;;;;;;0.60;0.60;;;8.20;99.90;;;;;;6252300;23;20167;-78
2023/10/15 02:00:33;;;;;;;0.50;0.50;;;8.20;99.90;;;;;;6249337;23;20218;-79
2023/10/15 02:03:01;;;;;;;0.50;0.50;;;8.10;99.90;;;;;;6223694;23;20175;-78
2023/10/15 02:05:41;;;;;;;0.50;0.50;;;8.10;99.90;;;;;;6249321;23;20194;-79
2023/10/15 02:08:24;;;;;;;0.68;0.68;;;8.20;99.90;;;;;;6249141;23;20166;-77
2023/10/15 02:10:54;;;;;;;0.50;0.50;;;8.20;99.90;;;;;;6251368;23;20460;-78
2023/10/15 02:13:26;;;;;;;0.50;0.50;;;8.00;99.90;;;;;;6248959;23;20223;-80
2023/10/15 02:15:55;;;;;;;0.70;0.70;;;7.90;99.90;;;;;;6248439;23;20287;-79
2023/10/15 02:18:23;;;;;;;0.70;0.70;;;8.00;99.90;;;;;;6248878;23;20198;-77
2023/10/15 02:23:18;;;;;;;1.23;1.13;;;8.00;99.90;;;;;;6248632;23;20184;-79
2023/10/15 02:26:00;;;;;;;0.70;0.70;;;7.90;99.90;;;;;;6222379;23;20213;-79
2023/10/15 02:28:31;;;;;;;0.47;0.47;;;8.00;99.90;;;;;;6248112;23;20189;-77
2023/10/15 02:31:10;;;;;;;0.50;0.50;;;7.90;99.90;;;;;;6252521;23;20171;-78
2023/10/15 02:33:38;;;;;;;0.50;0.50;;;7.90;99.90;;;;;;6259546;23;20202;-78
2023/10/15 02:36:09;;;;;;;0.50;0.50;;;7.90;99.90;;;;;;6249035;23;20388;-77
2023/10/15 02:38:38;;;;;;;0.50;0.50;;;7.80;99.90;;;;;;6249379;23;20168;-78
2023/10/15 02:41:06;;;;;;;0.82;0.82;;;7.70;99.90;;;;;;6222959;23;20246;-76
2023/10/15 02:43:48;;;;;;;0.60;0.60;;;7.70;99.90;;;;;;6248608;23;20191;-78
2023/10/15 02:46:22;;;;;;;1.00;0.90;;;7.70;99.90;;;;;;6248893;23;20194;-77
2023/10/15 02:48:59;;;;;;;0.50;0.50;;;7.60;99.90;;;;;;6255492;23;20479;-79
2023/10/15 02:51:28;;;;;;;0.98;0.70;;;7.60;99.90;;;;;;6250915;23;20190;-76
2023/10/15 02:54:03;;;;;;;0.50;0.50;;;7.60;99.90;;;;;;6234132;23;20320;-78
2023/10/15 02:56:31;;;;;;;1.23;1.13;;;7.60;99.90;;;;;;6269004;23;20175;-78
2023/10/15 02:58:58;;;;;;;0.80;0.70;;;7.50;99.90;;;;;;6267416;23;20186;-77
2023/10/15 03:01:25;;;;;;;0.50;0.50;;;7.40;99.90;;;;;;6262022;22;20196;-77
2023/10/15 03:03:54;;;;;;;0.50;0.50;;;7.40;99.90;;;;;;6249109;23;20387;-78
2023/10/15 03:06:28;;;;;;;0.50;0.50;;;7.30;99.90;;;;;;6249336;23;20168;-78
2023/10/15 03:08:56;;;;;;;1.25;1.15;;;7.10;99.90;;;;;;6251832;23;20172;-78
2023/10/15 03:11:25;;;;;;;0.50;0.50;;;7.00;99.90;;;;;;6251332;23;20238;-79
2023/10/15 03:13:55;;;;;;;0.50;0.50;;;7.10;99.90;;;;;;6251740;23;20214;-75
2023/10/15 03:16:24;;;;;;;0.50;0.50;;;7.10;99.90;;;;;;6252311;23;20192;-77
2023/10/15 03:18:52;;;;;;;0.77;0.77;;;7.00;99.90;;;;;;6250902;23;20183;-79
2023/10/15 03:21:26;;;;;;;1.55;1.45;;;7.00;99.90;;;;;;6251947;23;20472;-77
2023/10/15 03:23:57;;;;;;;0.50;0.50;;;6.80;99.90;;;;;;6250291;23;20225;-77
2023/10/15 03:26:30;;;;;;;0.50;0.50;;;6.70;99.90;;;;;;6250531;23;20194;-77
2023/10/15 03:28:58;;;;;;;1.67;1.58;;;6.60;99.90;;;;;;6250735;23;20227;-77
2023/10/15 03:31:31;;;;;;;0.60;0.60;;;6.50;99.90;;;;;;6224397;23;20183;-78
2023/10/15 03:34:13;;;;;;;0.50;0.50;;;6.40;99.90;;;;;;6224471;23;20175;-79
2023/10/15 03:36:50;;;;;;;0.50;0.50;;;6.60;99.90;;;;;;6223640;23;20206;-77
2023/10/15 03:40:11;;;;;;;0.50;0.50;;;6.80;99.90;;;;;;6249956;23;20227;-76
2023/10/15 03:44:49;;;;;;;0.50;0.50;;;6.70;99.90;;;;;;6250652;23;20317;-77
2023/10/15 03:47:17;;;;;;;0.50;0.50;;;6.80;99.90;;;;;;6250638;23;20503;-78
2023/10/15 03:49:46;;;;;;;17.80;1.55;;;6.80;99.90;;;;;;6223486;23;20203;-78
2023/10/15 03:52:20;;;;;;;3.85;1.60;;;6.80;99.90;;;;;;6250608;23;20230;-76
2023/10/15 03:54:51;;;;;;;0.40;0.40;;;6.80;99.90;;;;;;6250427;23;20175;-77
2023/10/15 03:57:23;;;;;;;0.60;0.60;;;6.60;99.90;;;;;;6249916;23;20368;-77
2023/10/15 03:59:52;;;;;;;0.50;0.50;;;6.50;99.90;;;;;;6250328;23;20195;-78
2023/10/15 04:02:39;;;;;;;0.50;0.50;;;6.60;99.90;;;;;;6249700;23;20184;-77
2023/10/15 04:05:12;;;;;;;0.50;0.50;;;6.50;99.90;;;;;;6249907;23;20183;-79
2023/10/15 04:07:48;;;;;;;0.50;0.50;;;6.50;99.90;;;;;;6223331;23;20191;-78
2023/10/15 04:10:23;;;;;;;1.02;0.93;;;6.40;99.90;;;;;;6226070;23;20178;-78
2023/10/15 04:12:51;;;;;;;0.88;0.88;;;6.40;99.90;;;;;;6253129;23;20167;-77
2023/10/15 04:15:22;;;;;;;0.47;0.47;;;6.40;99.90;;;;;;6250355;23;20188;-78
2023/10/15 04:17:51;;;;;;;0.50;0.50;;;6.50;99.90;;;;;;6250066;23;20290;-78
2023/10/15 04:20:40;;;;;;;0.50;0.50;;;6.40;99.90;;;;;;6249882;23;20218;-79
2023/10/15 04:23:11;;;;;;;0.93;0.93;;;6.50;99.90;;;;;;6249098;23;20429;-78
2023/10/15 04:25:39;;;;;;;0.95;0.95;;;6.40;99.90;;;;;;6249304;23;20198;-79
2023/10/15 04:28:14;;;;;;;0.50;0.50;;;6.30;99.90;;;;;;6251627;23;20191;-79
2023/10/15 04:30:42;;;;;;;0.50;0.50;;;6.20;99.90;;;;;;6250838;23;20249;-79
2023/10/15 04:33:17;;;;;;;0.90;0.90;;;6.10;99.90;;;;;;6250810;23;20222;-79
2023/10/15 04:35:51;;;;;;;1.90;1.80;;;6.10;99.90;;;;;;6251270;23;20178;-80
2023/10/15 04:38:22;;;;;;;2.35;1.50;;;6.00;99.90;;;;;;6251770;23;20253;-78
2023/10/15 04:43:27;;;;;;;0.50;0.50;;;5.90;99.90;;;;;;6251381;23;20240;-78
2023/10/15 04:45:56;;;;;;;3.33;1.80;;;5.80;99.90;;;;;;6258339;23;20187;-78
2023/10/15 04:48:29;;;;;;;0.93;0.93;;;5.80;99.90;;;;;;6225506;23;20425;-78
2023/10/15 04:51:02;;;;;;;0.80;0.80;;;5.90;99.90;;;;;;6223026;23;20175;-77
2023/10/15 04:53:30;;;;;;;0.50;0.50;;;5.80;99.90;;;;;;6249390;23;20171;-78
2023/10/15 04:56:00;;;;;;;1.08;1.08;;;5.80;99.90;;;;;;6250024;23;20218;-79
2023/10/15 04:58:27;;;;;;;0.50;0.50;;;5.80;99.90;;;;;;6252467;23;20180;-79
2023/10/15 05:00:57;;;;;;;0.50;0.50;;;5.70;99.90;;;;;;6252771;23;20213;-78
2023/10/15 05:03:24;;;;;;;0.55;0.55;;;5.70;99.90;;;;;;6252031;23;20211;-78
2023/10/15 05:05:51;;;;;;;0.50;0.50;;;5.70;99.90;;;;;;6225593;23;20199;-77
2023/10/15 05:08:18;;;;;;;0.50;0.50;;;5.90;99.90;;;;;;6251272;23;20519;-78
2023/10/15 05:10:50;;;;;;;0.50;0.50;;;5.80;99.90;;;;;;6251853;23;20375;-79
2023/10/15 05:13:18;;;;;;;0.50;0.50;;;5.80;99.90;;;;;;6250616;23;20214;-78
2023/10/15 05:15:46;;;;;;;0.80;0.80;;;5.80;99.90;;;;;;6249790;23;20189;-78
2023/10/15 05:18:15;;;;;;;0.77;0.77;;;5.80;99.90;;;;;;6248614;23;20184;-77
2023/10/15 05:20:48;;;;;;;0.50;0.50;;;5.70;99.90;;;;;;6221647;23;20499;-78
2023/10/15 05:23:16;;;;;;;0.65;0.65;;;5.60;99.90;;;;;;6248508;23;20178;-78
2023/10/15 05:25:43;;;;;;;0.63;0.63;;;5.60;99.90;;;;;;6250519;23;20213;-78
2023/10/15 05:28:17;;;;;;;1.00;1.00;;;5.70;99.90;;;;;;6253214;23;20189;-76
2023/10/15 05:30:44;;;;;;;0.50;0.50;;;5.60;99.90;;;;;;6248798;23;20169;-76
2023/10/15 05:33:11;;;;;;;0.50;0.50;;;5.70;99.90;;;;;;6248274;23;20193;-78
2023/10/15 05:35:43;;;;;;;0.50;0.50;;;5.70;99.90;;;;;;6222816;23;20193;-78
2023/10/15 05:38:09;;;;;;;0.50;0.50;;;5.70;99.90;;;;;;6249532;23;20353;-77
2023/10/15 05:40:38;;;;;;;2.30;2.15;;;5.80;99.90;;;;;;6249005;23;20194;-80
2023/10/15 05:43:06;;;;;;;2.35;1.85;;;5.80;99.90;;;;;;6225178;23;20522;-79
2023/10/15 05:45:33;;;;;;;0.40;0.40;;;5.80;99.90;;;;;;6222416;23;20186;-77
2023/10/15 05:48:00;;;;;;;0.50;0.50;;;5.90;99.90;;;;;;6222364;23;20207;-78
2023/10/15 05:50:28;;;;;;;0.73;0.73;;;6.00;99.90;;;;;;6248220;23;20179;-79
2023/10/15 05:52:55;;;;;;;0.40;0.40;;;6.00;99.90;;;;;;6248395;23;20211;-78
2023/10/15 05:55:22;;;;;;;0.57;0.57;;;6.10;99.90;;;;;;6248573;23;20245;-78
2023/10/15 05:57:49;;;;;;;0.60;0.60;;;6.20;99.90;;;;;;6248400;23;20551;-77
2023/10/15 06:00:19;;;;;;;0.50;0.50;;;6.50;99.90;;;;;;6245488;23;20367;-77
2023/10/15 06:02:53;;;;;;;0.55;0.55;;;6.50;99.90;;;;;;6248558;23;20160;-78
2023/10/15 06:05:21;;;;;;;0.77;0.77;;;6.50;99.90;;;;;;6247939;23;20216;-79
2023/10/15 06:07:49;;;;;;;0.52;0.52;;;6.60;99.90;;;;;;6248126;23;20207;-78
2023/10/15 06:10:16;;;;;;;0.50;0.50;;;6.60;99.90;;;;;;6248375;23;20395;-78
2023/10/15 06:12:43;;;;;;;0.50;0.50;;;6.70;99.90;;;;;;6247494;23;20184;-80
2023/10/15 06:15:15;;;;;;;0.57;0.57;;;6.80;99.90;;;;;;6247856;23;20483;-77
2023/10/15 06:17:46;;;;;;;4.68;1.83;;;7.10;99.90;;;;;;6248822;23;20164;-78
2023/10/15 06:20:14;;;;;;;0.50;0.50;;;7.40;99.90;;;;;;6247936;23;20487;-78
2023/10/15 06:22:48;;;;;;;0.80;0.80;;;7.30;99.90;;;;;;6248530;23;20187;-79
2023/10/15 06:25:18;;;;;;;0.50;0.50;;;7.30;99.90;;;;;;6247810;23;20183;-78
2023/10/15 06:27:46;;;;;;;4.30;2.67;;;7.30;99.90;;;;;;6248855;23;20195;-79
2023/10/15 06:30:16;;;;;;;1.25;1.02;;;7.40;99.90;;;;;;6248678;23;20183;-76
2023/10/15 06:32:50;;;;;;;0.50;0.50;;;7.50;99.90;;;;;;6249754;23;20652;-79
2023/10/15 06:35:21;;;;;;;0.52;0.52;;;7.70;99.90;;;;;;6253011;23;20178;-77
2023/10/15 06:37:50;;;;;;;0.63;0.63;;;7.70;99.90;;;;;;6249322;23;20573;-77
2023/10/15 06:40:18;;;;;;;1.83;1.58;;;7.80;99.90;;;;;;6248300;23;20187;-77
2023/10/15 06:42:51;;;;;;;1.70;1.60;;;7.80;99.90;;;;;;6250125;23;20183;-78
2023/10/15 06:45:20;;;;;;;0.60;0.60;;;8.00;99.90;;;;;;6250906;23;20175;-78
2023/10/15 06:47:51;;;;;;;0.55;0.55;;;8.10;99.90;;;;;;6251144;23;20818;-80
2023/10/15 06:50:19;;;;;;;2.10;1.10;;;8.10;99.90;;;;;;6249818;23;20452;-79
2023/10/15 06:52:53;;;;;;;0.50;0.50;;;8.30;99.90;;;;;;6251636;23;20731;-78
2023/10/15 06:55:20;;;;;;;0.77;0.77;;;8.30;99.90;;;;;;6251909;23;20346;-76
2023/10/15 06:57:48;;;;;;;0.50;0.50;;;8.40;99.90;;;;;;6225701;23;20194;-79
2023/10/15 07:00:22;;;;;;;0.50;0.50;;;8.50;99.90;;;;;;6251465;23;20538;-82
2023/10/15 07:02:55;;;;;;;1.13;1.02;;;8.30;99.90;;;;;;6252162;23;20167;-77
2023/10/15 07:05:25;;;;;;;4.63;1.95;;;8.70;99.90;;;;;;6251737;23;20213;-76
2023/10/15 07:07:56;;;;;;;4.60;0.80;;;8.80;99.90;;;;;;6252216;23;20511;-78
2023/10/15 07:10:24;;;;;;;1.25;1.25;;;9.00;99.90;;;;;;6251897;23;20170;-77
2023/10/15 07:12:51;;;;;;;1.08;1.00;;;9.70;99.90;;;;;;6252044;23;20184;-76
2023/10/15 07:15:23;;;;;;;0.60;0.60;;;10.30;99.90;;;;;;6251416;23;20190;-77
2023/10/15 07:17:51;;;;;;;0.60;0.60;;;11.60;99.90;;;;;;6253416;23;20168;-79
2023/10/15 07:20:18;;;;;;;0.60;0.60;;;13.40;99.90;;;;;;6252536;23;20247;-78
2023/10/15 07:22:47;;;;;;;0.60;0.60;;;14.10;99.90;;;;;;6255534;23;20179;-79
2023/10/15 07:25:16;;;;;;;1.75;1.65;;;13.60;99.90;;;;;;6238472;23;20238;-77
2023/10/15 07:27:45;;;;;;;0.60;0.60;;;13.40;99.90;;;;;;6267353;23;20195;-81
2023/10/15 07:30:14;;;;;;;0.70;0.70;;;14.10;99.90;;;;;;6236924;23;20206;-79
2023/10/15 07:32:43;;;;;;;0.70;0.70;;;14.30;99.90;;;;;;6253966;23;20383;-80
2023/10/15 07:35:11;;;;;;;0.90;0.90;;;15.30;99.90;;;;;;6252151;23;20379;-76
2023/10/15 07:37:51;;;;;;;0.90;0.90;;;14.90;99.90;;;;;;6225284;23;20379;-79
2023/10/15 07:40:27;;;;;;;0.80;0.80;;;15.80;99.90;;;;;;6249130;23;20397;-77
2023/10/15 07:42:59;;;;;;;0.80;0.80;;;16.00;99.90;;;;;;6253060;23;20391;-77
2023/10/15 07:45:32;;;;;;;0.70;0.70;;;15.00;99.90;;;;;;6225899;23;20550;-77
2023/10/15 07:48:03;;;;;;;1.23;1.23;;;15.70;99.90;;;;;;6224082;23;20426;-77
2023/10/15 07:50:34;;;;;;;0.70;0.70;;;14.70;99.90;;;;;;6249540;23;20720;-77
2023/10/15 07:53:02;;;;;;;1.00;1.00;;;14.90;99.90;;;;;;6249468;23;20457;-78
2023/10/15 07:55:29;;;;;;;0.67;0.67;;;15.00;99.90;;;;;;6248796;23;20400;-77
2023/10/15 07:57:57;;;;;;;0.87;0.87;;;14.30;99.90;;;;;;6241832;23;20432;-77
2023/10/15 08:00:29;;;;;;;1.07;1.07;;;15.40;99.90;;;;;;6244633;23;20405;-77
2023/10/15 08:02:58;;;;;;;0.80;0.80;;;16.40;99.90;;;;;;6246263;23;20505;-78
2023/10/15 08:05:31;;;;;;;0.80;0.80;;;14.20;99.90;;;;;;6233651;23;20371;-77
2023/10/15 08:08:04;;;;;;;0.80;0.80;;;15.50;99.90;;;;;;6252465;23;20417;-78
2023/10/15 08:10:33;;;;;;;0.90;0.90;;;14.60;99.90;;;;;;6248883;23;20492;-78
2023/10/15 08:13:04;;;;;;;1.13;1.13;;;15.40;99.90;;;;;;6249978;23;20381;-80
2023/10/15 08:15:33;;;;;;;0.70;0.70;;;12.80;99.90;;;;;;6246730;23;20372;-79
2023/10/15 08:18:01;;;;;;;0.80;0.80;;;13.80;99.90;;;;;;6248907;23;20379;-77
2023/10/15 08:20:28;;;;;;;0.80;0.80;;;12.30;99.90;;;;;;6249330;23;20397;-81
2023/10/15 08:22:55;;;;;;;0.70;0.70;;;12.70;99.90;;;;;;6251623;23;20577;-78
2023/10/15 08:25:23;;;;;;;3.13;3.03;;;12.60;99.90;;;;;;6256623;23;20432;-79
2023/10/15 08:27:50;;;;;;;0.80;0.80;;;12.80;99.90;;;;;;6249971;23;20536;-78
2023/10/15 08:30:18;;;;;;;0.97;0.97;;;12.90;99.90;;;;;;6249317;23;20383;-80
2023/10/15 08:32:46;;;;;;;1.30;1.30;;;13.30;99.90;;;;;;6221570;23;20411;-81
2023/10/15 08:35:14;;;;;;;0.70;0.70;;;13.00;99.90;;;;;;6222984;23;20397;-78
2023/10/15 08:37:45;;;;;;;0.80;0.80;;;13.50;99.90;;;;;;6248659;23;20379;-78
2023/10/15 08:40:17;;;;;;;0.80;0.80;;;13.50;99.90;;;;;;6249338;23;20397;-79
2023/10/15 08:43:01;;;;;;;0.70;0.70;;;12.60;99.90;;;;;;6249291;23;20416;-78
2023/10/15 08:45:29;;;;;;;0.70;0.70;;;12.20;99.90;;;;;;6224193;23;20443;-78
2023/10/15 08:48:01;;;;;;;0.70;0.70;;;12.20;99.90;;;;;;6252983;23;20420;-77
2023/10/15 08:50:29;;;;;;;1.07;1.07;;;12.60;99.90;;;;;;6224166;23;20969;-79
2023/10/15 08:52:59;;;;;;;0.97;0.97;;;12.30;99.90;;;;;;6249229;23;20442;-78
2023/10/15 08:55:26;;;;;;;0.90;0.90;;;12.60;99.90;;;;;;6222260;23;20732;-79
2023/10/15 08:57:54;;;;;;;0.77;0.77;;;12.50;99.90;;;;;;6248689;23;20407;-79
2023/10/15 09:00:25;;;;;;;0.70;0.70;;;12.30;99.90;;;;;;6248214;23;20464;-77
2023/10/15 09:02:56;;;;;;;0.80;0.80;;;12.40;99.90;;;;;;6259123;23;20396;-78
2023/10/15 09:05:24;;;;;;;0.80;0.80;;;12.80;99.90;;;;;;6248885;23;20712;-78
2023/10/15 09:07:54;;;;;;;0.70;0.70;;;12.80;99.90;;;;;;6249024;23;20436;-79
2023/10/15 09:10:21;;;;;;;0.93;0.93;;;12.20;99.90;;;;;;6247635;23;20168;-79
2023/10/15 09:12:50;;;;;;;0.80;0.80;;;11.90;99.90;;;;;;6248623;23;20429;-78
2023/10/15 09:15:18;;;;;;;1.65;1.55;;;11.80;99.90;;;;;;6248332;23;20195;-80
2023/10/15 09:17:58;;;;;;;0.70;0.70;;;12.40;99.90;;;;;;6251050;23;20215;-79
2023/10/15 09:20:32;;;;;;;0.60;0.60;;;12.20;99.90;;;;;;6202281;23;20394;-80
2023/10/15 09:23:00;;;;;;;1.10;1.10;;;12.40;99.90;;;;;;6253144;23;20456;-79
2023/10/15 09:25:30;;;;;;;0.60;0.60;;;12.30;99.90;;;;;;6249582;23;20174;-76
2023/10/15 09:27:59;;;;;;;0.70;0.70;;;12.00;99.90;;;;;;6248465;23;20573;-78
2023/10/15 09:30:27;;;;;;;1.83;1.70;;;11.60;99.90;;;;;;6247762;23;20183;-77
2023/10/15 09:32:56;;;;;;;0.60;0.60;;;12.00;99.90;;;;;;6247701;23;20183;-77
2023/10/15 09:35:24;;;;;;;0.60;0.60;;;11.80;99.90;;;;;;6248301;23;20180;-79
2023/10/15 09:37:54;;;;;;;0.70;0.70;;;11.50;99.90;;;;;;6249765;23;20222;-78
2023/10/15 09:40:30;;;;;;;0.60;0.60;;;11.30;99.90;;;;;;6248260;23;20595;-80
2023/10/15 09:42:59;;;;;;;1.83;1.67;;;11.70;99.90;;;;;;6222350;23;20190;-77
2023/10/15 09:45:30;;;;;;;1.45;1.35;;;11.80;99.90;;;;;;6249372;23;20184;-81
2023/10/15 09:47:58;;;;;;;0.60;0.60;;;11.70;99.90;;;;;;6249335;23;20192;-78
2023/10/15 09:50:27;;;;;;;3.33;1.55;;;11.70;99.90;;;;;;6222671;23;20630;-79
2023/10/15 09:53:01;;;;;;;1.10;1.00;;;12.00;99.90;;;;;;6223338;23;20244;-78
2023/10/15 09:55:32;;;;;;;0.60;0.60;;;11.90;99.90;;;;;;6248825;23;20172;-79
2023/10/15 09:58:04;;;;;;;1.75;1.65;;;12.30;99.90;;;;;;6222211;23;20218;-78
2023/10/15 10:03:39;;;;;;;0.60;0.60;;;11.90;99.90;;;;;;6247846;23;20176;-81
2023/10/15 10:06:27;;;;;;;0.60;0.60;;;11.50;99.90;;;;;;6248117;23;20190;-79
2023/10/15 10:09:21;;;;;;;0.60;0.60;;;11.20;99.90;;;;;;6247988;23;20570;-76
2023/10/15 10:12:28;;;;;;;0.70;0.70;;;11.70;99.90;;;;;;6249043;23;20235;-79
2023/10/15 10:15:23;;;;;;;0.90;0.90;;;11.80;99.90;;;;;;6255149;23;20167;-78
2023/10/15 10:17:52;;;;;;;0.55;0.55;;;12.10;99.90;;;;;;6254493;23;20203;-82
2023/10/15 10:20:29;;;;;;;0.60;0.60;;;12.50;99.90;;;;;;6250980;23;20187;-78
2023/10/15 10:23:04;;;;;;;0.60;0.60;;;12.40;99.90;;;;;;6248602;23;20159;-77
2023/10/15 10:25:39;;;;;;;0.70;0.70;;;12.60;99.90;;;;;;6246433;23;20499;-76
2023/10/15 10:28:08;;;;;;;0.60;0.60;;;12.60;99.90;;;;;;6247870;23;20198;-82
2023/10/15 10:30:57;;;;;;;0.60;0.60;;;12.60;99.90;;;;;;6249587;23;20167;-78
2023/10/15 10:33:42;;;;;;;0.60;0.60;;;12.90;99.90;;;;;;6250381;23;20351;-80
2023/10/15 10:36:21;;;;;;;0.90;0.90;;;12.80;99.90;;;;;;6252020;23;20183;-80
2023/10/15 10:38:59;;;;;;;0.93;0.93;;;12.50;99.90;;;;;;6249047;23;20214;-79
2023/10/15 10:41:37;;;;;;;0.60;0.60;;;12.20;99.90;;;;;;6248139;23;20183;-78
2023/10/15 10:44:09;;;;;;;1.80;1.70;;;11.80;99.90;;;;;;6249743;23;20191;-80
2023/10/15 10:46:56;;;;;;;1.65;1.60;;;11.80;99.90;;;;;;6248888;23;20282;-79
2023/10/15 10:49:34;;;;;;;0.70;0.70;;;12.10;99.90;;;;;;6248197;23;20160;-79
2023/10/15 10:52:06;;;;;;;0.60;0.60;;;12.30;99.90;;;;;;6249076;23;20168;-77
2023/10/15 10:54:36;;;;;;;0.68;0.68;;;12.10;99.90;;;;;;6250061;23;20183;-79
2023/10/15 10:57:07;;;;;;;0.60;0.60;;;12.00;99.90;;;;;;6248956;23;20198;-78
2023/10/15 10:59:52;;;;;;;0.60;0.60;;;11.90;99.90;;;;;;6249994;23;20167;-79
2023/10/15 11:02:20;;;;;;;0.60;0.60;;;12.20;99.90;;;;;;6250147;23;20250;-79
2023/10/15 11:04:49;;;;;;;0.60;0.60;;;12.10;99.90;;;;;;6247755;23;20184;-79
2023/10/15 11:07:16;;;;;;;0.60;0.60;;;12.00;99.90;;;;;;6248306;23;20210;-79
2023/10/15 11:09:43;;;;;;;0.50;0.50;;;11.80;99.90;;;;;;6247422;23;20183;-81
2023/10/15 11:12:11;;;;;;;0.50;0.50;;;11.60;99.90;;;;;;6248098;23;20349;-77
2023/10/15 11:14:39;;;;;;;0.60;0.60;;;11.50;99.90;;;;;;6221372;23;20242;-79
2023/10/15 11:17:08;;;;;;;1.50;1.40;;;11.30;99.90;;;;;;6248771;23;20213;-78
2023/10/15 11:19:37;;;;;;;2.25;1.88;;;11.10;99.90;;;;;;6248715;23;20199;-76
2023/10/15 11:22:05;;;;;;;0.80;0.80;;;11.00;99.90;;;;;;6248720;23;20224;-78
2023/10/15 11:24:33;;;;;;;0.60;0.60;;;11.00;99.90;;;;;;6248247;23;20169;-78
2023/10/15 11:27:00;;;;;;;0.80;0.80;;;11.00;99.90;;;;;;6248114;23;20499;-78
2023/10/15 11:29:28;;;;;;;1.48;1.48;;;11.10;99.90;;;;;;6249539;23;20447;-78
2023/10/15 11:31:59;;;;;;;0.50;0.50;;;11.40;99.90;;;;;;6250387;23;20175;-78
2023/10/15 11:34:28;;;;;;;1.90;1.80;;;11.70;99.90;;;;;;6251202;23;20365;-78
2023/10/15 11:36:56;;;;;;;0.50;0.50;;;11.90;99.90;;;;;;6254367;23;20428;-78
2023/10/15 11:39:37;;;;;;;2.25;2.05;;;12.30;99.90;;;;;;6223599;23;20187;-76
2023/10/15 11:42:08;;;;;;;1.20;1.13;;;12.50;99.90;;;;;;6250236;23;20178;-79
2023/10/15 11:44:42;;;;;;;4.25;2.92;;;12.10;99.90;;;;;;6250390;23;20198;-78
2023/10/15 11:47:15;;;;;;;4.10;1.70;;;11.70;99.90;;;;;;6247001;23;20219;-82
2023/10/15 11:49:44;;;;;;;0.60;0.60;;;11.60;99.90;;;;;;6223567;23;20175;-77
2023/10/15 11:52:18;;;;;;;0.75;0.75;;;11.80;99.90;;;;;;6250135;23;20183;-79
2023/10/15 11:54:49;;;;;;;1.63;1.58;;;11.90;99.90;;;;;;6250089;23;20198;-79
2023/10/15 11:57:25;;;;;;;0.85;0.85;;;12.00;99.90;;;;;;6252429;23;20175;-81
2023/10/15 11:59:52;;;;;;;0.60;0.60;;;11.80;99.90;;;;;;6261319;23;20237;-78
2023/10/15 12:02:24;;;;;;;0.60;0.60;;;11.60;99.90;;;;;;6265818;23;20360;-79
2023/10/15 12:04:51;;;;;;;1.02;1.02;;;11.60;99.90;;;;;;6268348;22;20186;-79
2023/10/15 12:07:22;;;;;;;1.15;1.15;;;11.50;99.90;;;;;;6266368;23;20376;-79
2023/10/15 12:09:49;;;;;;;0.60;0.60;;;11.60;99.90;;;;;;6263779;23;20487;-79
2023/10/15 12:12:17;;;;;;;0.57;0.57;;;11.70;99.90;;;;;;6229900;23;20194;-79
2023/10/15 12:14:45;;;;;;;1.42;1.27;;;11.70;99.90;;;;;;6252892;23;20183;-81
2023/10/15 12:17:15;;;;;;;0.57;0.57;;;11.90;99.90;;;;;;6250806;23;20183;-79
2023/10/15 12:19:44;;;;;;;0.50;0.50;;;11.90;99.90;;;;;;6250609;23;20167;-79
2023/10/15 12:22:16;;;;;;;3.35;0.93;;;12.10;99.90;;;;;;6249846;23;20184;-81
2023/10/15 12:24:43;;;;;;;0.50;0.50;;;12.10;99.90;;;;;;6250287;23;20175;-78
2023/10/15 12:27:11;;;;;;;0.60;0.60;;;12.00;99.90;;;;;;6250514;23;20184;-79
2023/10/15 12:29:38;;;;;;;0.57;0.57;;;11.80;99.90;;;;;;6250733;23;20211;-79
2023/10/15 12:32:08;;;;;;;0.95;0.85;;;11.80;99.90;;;;;;6224366;23;20183;-80
2023/10/15 12:34:39;;;;;;;0.80;0.80;;;11.50;99.90;;;;;;6223184;23;20269;-78
2023/10/15 12:37:07;;;;;;;0.60;0.60;;;11.40;99.90;;;;;;6250797;23;20160;-80
2023/10/15 12:39:40;;;;;;;0.60;0.60;;;11.70;99.90;;;;;;6250084;23;20301;-78
2023/10/15 12:42:09;;;;;;;0.50;0.50;;;11.80;99.90;;;;;;6249012;23;20175;-78
2023/10/15 12:44:39;;;;;;;1.15;1.15;;;11.50;99.90;;;;;;6248085;23;20221;-78
2023/10/15 12:47:09;;;;;;;1.33;1.23;;;11.20;99.90;;;;;;6249522;23;20198;-78
2023/10/15 12:49:36;;;;;;;0.60;0.60;;;11.20;99.90;;;;;;6249960;23;20242;-80
2023/10/15 12:52:05;;;;;;;0.60;0.60;;;11.20;99.90;;;;;;6250346;23;20223;-79
2023/10/15 12:54:33;;;;;;;0.60;0.60;;;11.10;99.90;;;;;;6253684;23;20215;-80
2023/10/15 12:57:00;;;;;;;0.50;0.50;;;11.10;99.90;;;;;;6225842;23;20190;-79
2023/10/15 12:59:27;;;;;;;0.70;0.70;;;11.10;99.90;;;;;;6250188;23;20262;-80
2023/10/15 13:01:54;;;;;;;0.60;0.60;;;11.10;99.90;;;;;;6250954;23;20206;-79
2023/10/15 13:04:21;;;;;;;0.60;0.60;;;11.10;99.90;;;;;;6249359;23;20183;-79
2023/10/15 13:06:49;;;;;;;0.60;0.60;;;11.20;99.90;;;;;;6250076;23;20229;-78
2023/10/15 13:09:19;;;;;;;0.60;0.60;;;11.30;99.90;;;;;;6223427;23;20221;-77
2023/10/15 13:11:47;;;;;;;0.70;0.70;;;11.50;99.90;;;;;;6247168;23;20164;-78
2023/10/15 13:14:14;;;;;;;0.90;0.90;;;11.70;99.90;;;;;;6249528;23;20182;-78
2023/10/15 13:16:42;;;;;;;1.15;1.15;;;11.60;99.90;;;;;;6223010;23;20445;-76
2023/10/15 13:19:09;;;;;;;1.25;1.25;;;11.40;99.90;;;;;;6250532;23;20188;-79
2023/10/15 13:21:42;;;;;;;0.65;0.65;;;11.40;99.90;;;;;;6253937;23;20183;-78
2023/10/15 13:24:11;;;;;;;1.67;1.58;;;11.20;99.90;;;;;;6224430;23;20178;-79
2023/10/15 13:26:42;;;;;;;0.70;0.70;;;11.20;99.90;;;;;;6250165;23;20214;-80
2023/10/15 13:29:09;;;;;;;0.60;0.60;;;11.10;99.90;;;;;;6224002;23;20203;-80